Lamoille, Nevada
Current Conditions -  °F | °C
As of 2:56 AM on Sunday 21 Dec 2014 (Local Time) from KEKO Reporting Station
Overcast Overcast  
Wind Chill: 35°   Ceiling: 2600
Heat Index: 42°   Visibility: 10mi
Dew Point: 36°   Wind: 14mph
Humidity: 79%   Direction: 220°SW
Pressure: 30.04"   Gusts: NA
Location:  40.73°N, 115.48°W
Report Text: KEKO 211056Z AUTO 22012KT 10SM SCT019 OVC026 06/02 A3004 RMK AO2 SLP171 T00560022
Loading
Personal Weather Stations






























Interactive Weather Map New forecast layout! Learn more

10-Day Weather Forecast

Advertisements
Track Severe Weather on mobile